sensor_id;sensor_type;location;lat;lon;timestamp;P1;durP1;ratioP1;P2;durP2;ratioP2
73266;SDS011;61495;53.400;7.608;2023-04-16T00:02:10;26.30;;;14.00;;
73266;SDS011;61495;53.400;7.608;2023-04-16T00:04:36;23.80;;;12.88;;
73266;SDS011;61495;53.400;7.608;2023-04-16T00:07:01;24.58;;;13.90;;
73266;SDS011;61495;53.400;7.608;2023-04-16T00:09:27;23.52;;;14.75;;
73266;SDS011;61495;53.400;7.608;2023-04-16T00:11:52;23.45;;;14.02;;
73266;SDS011;61495;53.400;7.608;2023-04-16T00:14:21;23.80;;;13.27;;
73266;SDS011;61495;53.400;7.608;2023-04-16T00:16:46;24.50;;;12.93;;
73266;SDS011;61495;53.400;7.608;2023-04-16T00:19:11;23.92;;;15.90;;
73266;SDS011;61495;53.400;7.608;2023-04-16T00:21:37;24.90;;;14.88;;
73266;SDS011;61495;53.400;7.608;2023-04-16T00:24:03;20.35;;;12.50;;
73266;SDS011;61495;53.400;7.608;2023-04-16T00:26:28;24.30;;;12.25;;
73266;SDS011;61495;53.400;7.608;2023-04-16T00:28:54;20.95;;;12.07;;
73266;SDS011;61495;53.400;7.608;2023-04-16T00:31:26;23.00;;;12.85;;
73266;SDS011;61495;53.400;7.608;2023-04-16T00:33:53;22.50;;;12.15;;
73266;SDS011;61495;53.400;7.608;2023-04-16T00:36:20;22.35;;;12.45;;
73266;SDS011;61495;53.400;7.608;2023-04-16T00:38:47;21.20;;;12.38;;
73266;SDS011;61495;53.400;7.608;2023-04-16T00:41:12;22.45;;;11.95;;
73266;SDS011;61495;53.400;7.608;2023-04-16T00:43:37;21.60;;;11.60;;
73266;SDS011;61495;53.400;7.608;2023-04-16T00:46:03;22.10;;;11.77;;
73266;SDS011;61495;53.400;7.608;2023-04-16T00:48:30;22.70;;;11.43;;
73266;SDS011;61495;53.400;7.608;2023-04-16T00:50:57;24.80;;;12.23;;
73266;SDS011;61495;53.400;7.608;2023-04-16T00:53:25;23.00;;;12.32;;
73266;SDS011;61495;53.400;7.608;2023-04-16T00:55:52;20.60;;;12.18;;
73266;SDS011;61495;53.400;7.608;2023-04-16T00:58:20;20.90;;;12.43;;
73266;SDS011;61495;53.400;7.608;2023-04-16T01:00:46;21.50;;;12.05;;
73266;SDS011;61495;53.400;7.608;2023-04-16T01:03:11;19.75;;;11.13;;
73266;SDS011;61495;53.400;7.608;2023-04-16T01:05:37;24.50;;;12.23;;
73266;SDS011;61495;53.400;7.608;2023-04-16T01:08:02;21.30;;;12.25;;
73266;SDS011;61495;53.400;7.608;2023-04-16T01:10:28;19.92;;;11.82;;
73266;SDS011;61495;53.400;7.608;2023-04-16T01:12:53;21.60;;;12.23;;
73266;SDS011;61495;53.400;7.608;2023-04-16T01:15:19;19.70;;;11.82;;
73266;SDS011;61495;53.400;7.608;2023-04-16T01:17:44;24.63;;;11.75;;
73266;SDS011;61495;53.400;7.608;2023-04-16T01:20:10;19.42;;;10.38;;
73266;SDS011;61495;53.400;7.608;2023-04-16T01:22:35;22.02;;;11.68;;
73266;SDS011;61495;53.400;7.608;2023-04-16T01:25:01;25.25;;;13.07;;
73266;SDS011;61495;53.400;7.608;2023-04-16T01:27:27;22.08;;;12.35;;
73266;SDS011;61495;53.400;7.608;2023-04-16T01:29:52;26.02;;;12.23;;
73266;SDS011;61495;53.400;7.608;2023-04-16T01:32:18;19.83;;;11.40;;
73266;SDS011;61495;53.400;7.608;2023-04-16T01:34:43;23.60;;;11.65;;
73266;SDS011;61495;53.400;7.608;2023-04-16T01:37:08;24.10;;;12.75;;
73266;SDS011;61495;53.400;7.608;2023-04-16T01:39:34;24.92;;;11.98;;
73266;SDS011;61495;53.400;7.608;2023-04-16T01:41:59;21.40;;;12.73;;
73266;SDS011;61495;53.400;7.608;2023-04-16T01:44:30;24.52;;;12.40;;
73266;SDS011;61495;53.400;7.608;2023-04-16T01:46:55;21.48;;;12.30;;
73266;SDS011;61495;53.400;7.608;2023-04-16T01:49:21;20.50;;;11.90;;
73266;SDS011;61495;53.400;7.608;2023-04-16T01:51:47;24.25;;;12.30;;
73266;SDS011;61495;53.400;7.608;2023-04-16T01:54:12;24.20;;;12.57;;
73266;SDS011;61495;53.400;7.608;2023-04-16T01:56:38;24.77;;;13.05;;
73266;SDS011;61495;53.400;7.608;2023-04-16T01:59:03;24.83;;;12.25;;
73266;SDS011;61495;53.400;7.608;2023-04-16T02:01:29;23.70;;;12.18;;
73266;SDS011;61495;53.400;7.608;2023-04-16T02:03:54;22.52;;;12.45;;
73266;SDS011;61495;53.400;7.608;2023-04-16T02:06:21;20.08;;;11.55;;
73266;SDS011;61495;53.400;7.608;2023-04-16T02:08:46;23.92;;;13.20;;
73266;SDS011;61495;53.400;7.608;2023-04-16T02:11:12;22.38;;;13.85;;
73266;SDS011;61495;53.400;7.608;2023-04-16T02:13:43;22.60;;;12.20;;
73266;SDS011;61495;53.400;7.608;2023-04-16T02:16:08;21.80;;;11.77;;
73266;SDS011;61495;53.400;7.608;2023-04-16T02:18:33;22.85;;;12.50;;
73266;SDS011;61495;53.400;7.608;2023-04-16T02:20:59;23.20;;;11.90;;
73266;SDS011;61495;53.400;7.608;2023-04-16T02:23:24;20.17;;;12.23;;
73266;SDS011;61495;53.400;7.608;2023-04-16T02:25:49;22.35;;;13.00;;
73266;SDS011;61495;53.400;7.608;2023-04-16T02:28:15;24.38;;;14.50;;
73266;SDS011;61495;53.400;7.608;2023-04-16T02:30:41;25.92;;;13.35;;
73266;SDS011;61495;53.400;7.608;2023-04-16T02:33:08;25.00;;;14.05;;
73266;SDS011;61495;53.400;7.608;2023-04-16T02:35:35;24.80;;;13.63;;
73266;SDS011;61495;53.400;7.608;2023-04-16T02:38:02;24.65;;;13.13;;
73266;SDS011;61495;53.400;7.608;2023-04-16T02:40:28;28.52;;;13.30;;
73266;SDS011;61495;53.400;7.608;2023-04-16T02:43:09;25.90;;;14.00;;
73266;SDS011;61495;53.400;7.608;2023-04-16T02:45:34;24.85;;;14.50;;
73266;SDS011;61495;53.400;7.608;2023-04-16T02:48:00;24.20;;;13.68;;
73266;SDS011;61495;53.400;7.608;2023-04-16T02:50:25;23.50;;;13.18;;
73266;SDS011;61495;53.400;7.608;2023-04-16T02:52:51;23.92;;;13.60;;
73266;SDS011;61495;53.400;7.608;2023-04-16T02:55:16;25.55;;;13.93;;
73266;SDS011;61495;53.400;7.608;2023-04-16T02:57:41;24.35;;;12.40;;
73266;SDS011;61495;53.400;7.608;2023-04-16T03:00:07;22.90;;;12.63;;
73266;SDS011;61495;53.400;7.608;2023-04-16T03:02:33;22.95;;;12.65;;
73266;SDS011;61495;53.400;7.608;2023-04-16T03:04:58;22.45;;;14.00;;
73266;SDS011;61495;53.400;7.608;2023-04-16T03:07:23;29.92;;;13.55;;
73266;SDS011;61495;53.400;7.608;2023-04-16T03:09:49;24.00;;;12.90;;
73266;SDS011;61495;53.400;7.608;2023-04-16T03:12:15;24.00;;;13.60;;
73266;SDS011;61495;53.400;7.608;2023-04-16T03:14:40;24.08;;;12.50;;
73266;SDS011;61495;53.400;7.608;2023-04-16T03:17:06;26.20;;;13.00;;
73266;SDS011;61495;53.400;7.608;2023-04-16T03:19:31;24.35;;;13.95;;
73266;SDS011;61495;53.400;7.608;2023-04-16T03:21:56;24.42;;;13.88;;
73266;SDS011;61495;53.400;7.608;2023-04-16T03:24:22;23.80;;;14.10;;
73266;SDS011;61495;53.400;7.608;2023-04-16T03:26:47;24.55;;;12.27;;
73266;SDS011;61495;53.400;7.608;2023-04-16T03:29:13;22.40;;;12.70;;
73266;SDS011;61495;53.400;7.608;2023-04-16T03:31:38;21.92;;;12.40;;
73266;SDS011;61495;53.400;7.608;2023-04-16T03:34:03;20.65;;;12.05;;
73266;SDS011;61495;53.400;7.608;2023-04-16T03:36:29;23.92;;;11.90;;
73266;SDS011;61495;53.400;7.608;2023-04-16T03:38:54;25.45;;;12.13;;
73266;SDS011;61495;53.400;7.608;2023-04-16T03:41:20;25.35;;;13.45;;
73266;SDS011;61495;53.400;7.608;2023-04-16T03:43:54;23.02;;;12.13;;
73266;SDS011;61495;53.400;7.608;2023-04-16T03:46:20;24.15;;;12.40;;
73266;SDS011;61495;53.400;7.608;2023-04-16T03:48:45;21.58;;;12.35;;
73266;SDS011;61495;53.400;7.608;2023-04-16T03:51:10;24.58;;;12.77;;
73266;SDS011;61495;53.400;7.608;2023-04-16T03:53:36;26.20;;;13.45;;
73266;SDS011;61495;53.400;7.608;2023-04-16T03:56:01;25.10;;;13.40;;
73266;SDS011;61495;53.400;7.608;2023-04-16T03:58:26;25.48;;;12.73;;
73266;SDS011;61495;53.400;7.608;2023-04-16T04:00:52;27.45;;;13.43;;
73266;SDS011;61495;53.400;7.608;2023-04-16T04:03:19;22.55;;;13.02;;
73266;SDS011;61495;53.400;7.608;2023-04-16T04:05:44;23.05;;;13.00;;
73266;SDS011;61495;53.400;7.608;2023-04-16T04:08:10;25.60;;;14.77;;
73266;SDS011;61495;53.400;7.608;2023-04-16T04:10:35;26.98;;;14.55;;
73266;SDS011;61495;53.400;7.608;2023-04-16T04:13:10;27.80;;;14.32;;
73266;SDS011;61495;53.400;7.608;2023-04-16T04:15:35;27.33;;;14.63;;
73266;SDS011;61495;53.400;7.608;2023-04-16T04:18:01;29.85;;;14.30;;
73266;SDS011;61495;53.400;7.608;2023-04-16T04:20:26;27.00;;;14.55;;
73266;SDS011;61495;53.400;7.608;2023-04-16T04:22:52;27.13;;;15.18;;
73266;SDS011;61495;53.400;7.608;2023-04-16T04:25:17;27.08;;;13.70;;
73266;SDS011;61495;53.400;7.608;2023-04-16T04:27:42;27.20;;;15.23;;
73266;SDS011;61495;53.400;7.608;2023-04-16T04:30:08;28.95;;;14.52;;
73266;SDS011;61495;53.400;7.608;2023-04-16T04:32:34;28.70;;;13.80;;
73266;SDS011;61495;53.400;7.608;2023-04-16T04:35:00;27.38;;;14.68;;
73266;SDS011;61495;53.400;7.608;2023-04-16T04:37:26;28.42;;;15.10;;
73266;SDS011;61495;53.400;7.608;2023-04-16T04:39:52;29.02;;;15.20;;
73266;SDS011;61495;53.400;7.608;2023-04-16T04:42:20;29.52;;;15.00;;
73266;SDS011;61495;53.400;7.608;2023-04-16T04:44:46;25.35;;;13.88;;
73266;SDS011;61495;53.400;7.608;2023-04-16T04:47:12;29.05;;;14.90;;
73266;SDS011;61495;53.400;7.608;2023-04-16T04:49:38;29.45;;;15.32;;
73266;SDS011;61495;53.400;7.608;2023-04-16T04:52:03;29.55;;;15.10;;
73266;SDS011;61495;53.400;7.608;2023-04-16T04:54:30;30.65;;;15.43;;
73266;SDS011;61495;53.400;7.608;2023-04-16T04:56:56;28.75;;;15.27;;
73266;SDS011;61495;53.400;7.608;2023-04-16T04:59:22;28.23;;;14.98;;
73266;SDS011;61495;53.400;7.608;2023-04-16T05:01:48;27.42;;;14.45;;
73266;SDS011;61495;53.400;7.608;2023-04-16T05:04:14;29.88;;;16.05;;
73266;SDS011;61495;53.400;7.608;2023-04-16T05:06:40;29.65;;;15.38;;
73266;SDS011;61495;53.400;7.608;2023-04-16T05:09:05;27.15;;;15.85;;
73266;SDS011;61495;53.400;7.608;2023-04-16T05:11:35;27.85;;;14.48;;
73266;SDS011;61495;53.400;7.608;2023-04-16T05:14:06;30.55;;;15.57;;
73266;SDS011;61495;53.400;7.608;2023-04-16T05:16:34;27.17;;;15.00;;
73266;SDS011;61495;53.400;7.608;2023-04-16T05:19:00;30.08;;;15.50;;
73266;SDS011;61495;53.400;7.608;2023-04-16T05:21:26;30.55;;;16.58;;
73266;SDS011;61495;53.400;7.608;2023-04-16T05:23:52;28.88;;;15.50;;
73266;SDS011;61495;53.400;7.608;2023-04-16T05:26:18;27.40;;;15.18;;
73266;SDS011;61495;53.400;7.608;2023-04-16T05:28:43;28.92;;;15.63;;
73266;SDS011;61495;53.400;7.608;2023-04-16T05:31:09;29.67;;;15.88;;
73266;SDS011;61495;53.400;7.608;2023-04-16T05:33:34;29.55;;;16.17;;
73266;SDS011;61495;53.400;7.608;2023-04-16T05:36:00;26.50;;;14.88;;
73266;SDS011;61495;53.400;7.608;2023-04-16T05:38:25;25.90;;;14.98;;
73266;SDS011;61495;53.400;7.608;2023-04-16T05:40:51;27.48;;;14.55;;
73266;SDS011;61495;53.400;7.608;2023-04-16T05:43:19;30.05;;;14.93;;
73266;SDS011;61495;53.400;7.608;2023-04-16T05:45:45;26.88;;;15.43;;
73266;SDS011;61495;53.400;7.608;2023-04-16T05:48:11;26.70;;;14.43;;
73266;SDS011;61495;53.400;7.608;2023-04-16T05:50:37;31.88;;;14.38;;
73266;SDS011;61495;53.400;7.608;2023-04-16T05:53:04;27.60;;;14.98;;
73266;SDS011;61495;53.400;7.608;2023-04-16T05:55:31;24.33;;;13.82;;
73266;SDS011;61495;53.400;7.608;2023-04-16T05:57:56;25.50;;;13.40;;
73266;SDS011;61495;53.400;7.608;2023-04-16T06:00:22;28.33;;;13.30;;
73266;SDS011;61495;53.400;7.608;2023-04-16T06:02:48;25.70;;;14.32;;
73266;SDS011;61495;53.400;7.608;2023-04-16T06:05:14;23.40;;;14.10;;
73266;SDS011;61495;53.400;7.608;2023-04-16T06:07:40;24.48;;;14.40;;
73266;SDS011;61495;53.400;7.608;2023-04-16T06:10:06;27.85;;;14.10;;
73266;SDS011;61495;53.400;7.608;2023-04-16T06:12:32;26.20;;;14.02;;
73266;SDS011;61495;53.400;7.608;2023-04-16T06:14:59;24.85;;;14.27;;
73266;SDS011;61495;53.400;7.608;2023-04-16T06:17:25;28.38;;;14.43;;
73266;SDS011;61495;53.400;7.608;2023-04-16T06:19:51;25.52;;;14.68;;
73266;SDS011;61495;53.400;7.608;2023-04-16T06:22:16;27.27;;;14.35;;
73266;SDS011;61495;53.400;7.608;2023-04-16T06:24:41;25.95;;;13.00;;
73266;SDS011;61495;53.400;7.608;2023-04-16T06:27:07;26.15;;;13.75;;
73266;SDS011;61495;53.400;7.608;2023-04-16T06:29:33;24.98;;;14.32;;
73266;SDS011;61495;53.400;7.608;2023-04-16T06:31:58;24.92;;;13.73;;
73266;SDS011;61495;53.400;7.608;2023-04-16T06:34:23;24.10;;;13.40;;
73266;SDS011;61495;53.400;7.608;2023-04-16T06:36:49;25.38;;;13.88;;
73266;SDS011;61495;53.400;7.608;2023-04-16T06:39:15;27.30;;;15.48;;
73266;SDS011;61495;53.400;7.608;2023-04-16T06:41:41;23.42;;;14.32;;
73266;SDS011;61495;53.400;7.608;2023-04-16T06:44:13;24.33;;;14.35;;
73266;SDS011;61495;53.400;7.608;2023-04-16T06:46:38;25.52;;;14.50;;
73266;SDS011;61495;53.400;7.608;2023-04-16T06:49:04;27.90;;;14.05;;
73266;SDS011;61495;53.400;7.608;2023-04-16T06:51:30;25.17;;;14.32;;
73266;SDS011;61495;53.400;7.608;2023-04-16T06:53:56;26.80;;;14.18;;
73266;SDS011;61495;53.400;7.608;2023-04-16T06:56:22;26.48;;;14.20;;
73266;SDS011;61495;53.400;7.608;2023-04-16T06:58:47;22.27;;;13.55;;
73266;SDS011;61495;53.400;7.608;2023-04-16T07:01:13;27.42;;;14.30;;
73266;SDS011;61495;53.400;7.608;2023-04-16T07:03:39;22.48;;;13.68;;
73266;SDS011;61495;53.400;7.608;2023-04-16T07:06:05;22.95;;;13.73;;
73266;SDS011;61495;53.400;7.608;2023-04-16T07:08:31;27.23;;;13.77;;
73266;SDS011;61495;53.400;7.608;2023-04-16T07:10:56;23.77;;;14.20;;
73266;SDS011;61495;53.400;7.608;2023-04-16T07:13:29;24.83;;;14.27;;
73266;SDS011;61495;53.400;7.608;2023-04-16T07:15:54;26.75;;;14.07;;
73266;SDS011;61495;53.400;7.608;2023-04-16T07:18:20;23.52;;;14.00;;
73266;SDS011;61495;53.400;7.608;2023-04-16T07:20:46;26.30;;;13.88;;
73266;SDS011;61495;53.400;7.608;2023-04-16T07:23:12;25.35;;;14.75;;
73266;SDS011;61495;53.400;7.608;2023-04-16T07:25:37;24.95;;;13.52;;
73266;SDS011;61495;53.400;7.608;2023-04-16T07:28:04;22.45;;;12.98;;
73266;SDS011;61495;53.400;7.608;2023-04-16T07:30:30;24.15;;;13.38;;
73266;SDS011;61495;53.400;7.608;2023-04-16T07:32:59;20.85;;;12.60;;
73266;SDS011;61495;53.400;7.608;2023-04-16T07:35:25;20.48;;;12.30;;
73266;SDS011;61495;53.400;7.608;2023-04-16T07:37:51;22.05;;;12.30;;
73266;SDS011;61495;53.400;7.608;2023-04-16T07:40:17;23.42;;;12.07;;
73266;SDS011;61495;53.400;7.608;2023-04-16T07:42:45;23.10;;;12.05;;
73266;SDS011;61495;53.400;7.608;2023-04-16T07:45:10;23.05;;;13.20;;
73266;SDS011;61495;53.400;7.608;2023-04-16T07:47:36;22.10;;;12.13;;
73266;SDS011;61495;53.400;7.608;2023-04-16T07:50:01;22.58;;;12.63;;
73266;SDS011;61495;53.400;7.608;2023-04-16T07:52:27;20.77;;;11.57;;
73266;SDS011;61495;53.400;7.608;2023-04-16T07:54:52;22.13;;;12.75;;
73266;SDS011;61495;53.400;7.608;2023-04-16T07:57:17;23.98;;;12.48;;
73266;SDS011;61495;53.400;7.608;2023-04-16T07:59:43;20.77;;;11.63;;
73266;SDS011;61495;53.400;7.608;2023-04-16T08:02:09;20.25;;;12.95;;
73266;SDS011;61495;53.400;7.608;2023-04-16T08:04:38;25.05;;;13.75;;
73266;SDS011;61495;53.400;7.608;2023-04-16T08:07:03;23.20;;;12.98;;
73266;SDS011;61495;53.400;7.608;2023-04-16T08:09:29;26.00;;;13.00;;
73266;SDS011;61495;53.400;7.608;2023-04-16T08:11:54;20.90;;;12.43;;
73266;SDS011;61495;53.400;7.608;2023-04-16T08:14:22;22.27;;;13.02;;
73266;SDS011;61495;53.400;7.608;2023-04-16T08:16:48;22.27;;;12.23;;
73266;SDS011;61495;53.400;7.608;2023-04-16T08:19:13;20.30;;;12.52;;
73266;SDS011;61495;53.400;7.608;2023-04-16T08:21:39;21.25;;;11.30;;
73266;SDS011;61495;53.400;7.608;2023-04-16T08:24:04;22.85;;;12.55;;
73266;SDS011;61495;53.400;7.608;2023-04-16T08:26:30;21.33;;;12.93;;
73266;SDS011;61495;53.400;7.608;2023-04-16T08:28:55;24.10;;;13.45;;
73266;SDS011;61495;53.400;7.608;2023-04-16T08:31:20;22.23;;;13.23;;
73266;SDS011;61495;53.400;7.608;2023-04-16T08:33:46;23.25;;;13.00;;
73266;SDS011;61495;53.400;7.608;2023-04-16T08:36:11;18.27;;;12.05;;
73266;SDS011;61495;53.400;7.608;2023-04-16T08:38:37;21.23;;;12.02;;
73266;SDS011;61495;53.400;7.608;2023-04-16T08:41:04;21.88;;;12.63;;
73266;SDS011;61495;53.400;7.608;2023-04-16T08:43:33;21.25;;;13.52;;
73266;SDS011;61495;53.400;7.608;2023-04-16T08:46:02;19.92;;;12.15;;
73266;SDS011;61495;53.400;7.608;2023-04-16T08:48:31;21.02;;;12.68;;
73266;SDS011;61495;53.400;7.608;2023-04-16T08:50:57;18.95;;;11.68;;
73266;SDS011;61495;53.400;7.608;2023-04-16T08:53:28;20.17;;;11.93;;
73266;SDS011;61495;53.400;7.608;2023-04-16T08:55:58;19.33;;;11.32;;
73266;SDS011;61495;53.400;7.608;2023-04-16T08:58:28;18.88;;;11.50;;
73266;SDS011;61495;53.400;7.608;2023-04-16T09:00:58;19.85;;;11.10;;
73266;SDS011;61495;53.400;7.608;2023-04-16T09:03:23;21.38;;;12.35;;
73266;SDS011;61495;53.400;7.608;2023-04-16T09:05:49;21.00;;;12.68;;
73266;SDS011;61495;53.400;7.608;2023-04-16T09:08:15;19.52;;;11.32;;
73266;SDS011;61495;53.400;7.608;2023-04-16T09:10:41;17.38;;;10.88;;
73266;SDS011;61495;53.400;7.608;2023-04-16T09:13:12;18.02;;;11.93;;
73266;SDS011;61495;53.400;7.608;2023-04-16T09:15:40;18.05;;;11.60;;
73266;SDS011;61495;53.400;7.608;2023-04-16T09:18:07;18.95;;;12.68;;
73266;SDS011;61495;53.400;7.608;2023-04-16T09:20:33;16.40;;;11.27;;
73266;SDS011;61495;53.400;7.608;2023-04-16T09:22:58;18.15;;;11.88;;
73266;SDS011;61495;53.400;7.608;2023-04-16T09:25:23;17.30;;;11.85;;
73266;SDS011;61495;53.400;7.608;2023-04-16T09:27:50;17.63;;;11.07;;
73266;SDS011;61495;53.400;7.608;2023-04-16T09:30:19;22.08;;;12.57;;
73266;SDS011;61495;53.400;7.608;2023-04-16T09:32:46;19.95;;;12.45;;
73266;SDS011;61495;53.400;7.608;2023-04-16T09:35:12;19.23;;;11.15;;
73266;SDS011;61495;53.400;7.608;2023-04-16T09:37:39;16.40;;;11.18;;
73266;SDS011;61495;53.400;7.608;2023-04-16T09:40:04;18.70;;;11.73;;
73266;SDS011;61495;53.400;7.608;2023-04-16T09:42:35;18.73;;;10.75;;
73266;SDS011;61495;53.400;7.608;2023-04-16T09:45:01;18.48;;;12.25;;
73266;SDS011;61495;53.400;7.608;2023-04-16T09:47:43;18.73;;;10.75;;
73266;SDS011;61495;53.400;7.608;2023-04-16T09:50:17;19.08;;;11.35;;
73266;SDS011;61495;53.400;7.608;2023-04-16T09:52:47;19.13;;;9.85;;
73266;SDS011;61495;53.400;7.608;2023-04-16T09:55:15;18.40;;;11.20;;
73266;SDS011;61495;53.400;7.608;2023-04-16T09:57:41;15.40;;;11.45;;
73266;SDS011;61495;53.400;7.608;2023-04-16T10:00:07;19.25;;;11.32;;
73266;SDS011;61495;53.400;7.608;2023-04-16T10:02:34;20.85;;;11.68;;
73266;SDS011;61495;53.400;7.608;2023-04-16T10:05:04;19.08;;;9.95;;
73266;SDS011;61495;53.400;7.608;2023-04-16T10:07:34;16.60;;;11.05;;
73266;SDS011;61495;53.400;7.608;2023-04-16T10:10:00;18.20;;;10.82;;
73266;SDS011;61495;53.400;7.608;2023-04-16T10:12:36;18.75;;;12.00;;
73266;SDS011;61495;53.400;7.608;2023-04-16T10:15:01;17.15;;;9.90;;
73266;SDS011;61495;53.400;7.608;2023-04-16T10:17:26;18.70;;;12.20;;
73266;SDS011;61495;53.400;7.608;2023-04-16T10:19:54;18.40;;;10.63;;
73266;SDS011;61495;53.400;7.608;2023-04-16T10:22:21;17.63;;;11.45;;
73266;SDS011;61495;53.400;7.608;2023-04-16T10:24:46;17.60;;;11.35;;
73266;SDS011;61495;53.400;7.608;2023-04-16T10:27:13;16.13;;;11.18;;
73266;SDS011;61495;53.400;7.608;2023-04-16T10:29:39;17.50;;;11.20;;
73266;SDS011;61495;53.400;7.608;2023-04-16T10:32:05;14.40;;;10.48;;
73266;SDS011;61495;53.400;7.608;2023-04-16T10:34:30;16.83;;;10.80;;
73266;SDS011;61495;53.400;7.608;2023-04-16T10:36:56;17.55;;;9.85;;
73266;SDS011;61495;53.400;7.608;2023-04-16T10:39:22;16.10;;;9.85;;
73266;SDS011;61495;53.400;7.608;2023-04-16T10:41:49;17.27;;;9.93;;
73266;SDS011;61495;53.400;7.608;2023-04-16T10:44:15;20.58;;;9.32;;
73266;SDS011;61495;53.400;7.608;2023-04-16T10:46:42;17.90;;;10.45;;
73266;SDS011;61495;53.400;7.608;2023-04-16T10:49:23;18.58;;;9.50;;
73266;SDS011;61495;53.400;7.608;2023-04-16T10:51:56;14.75;;;9.35;;
73266;SDS011;61495;53.400;7.608;2023-04-16T10:54:27;16.88;;;9.27;;
73266;SDS011;61495;53.400;7.608;2023-04-16T10:56:58;17.13;;;10.32;;
73266;SDS011;61495;53.400;7.608;2023-04-16T10:59:29;17.08;;;9.82;;
73266;SDS011;61495;53.400;7.608;2023-04-16T11:01:57;16.90;;;9.68;;
73266;SDS011;61495;53.400;7.608;2023-04-16T11:07:31;17.73;;;10.13;;
73266;SDS011;61495;53.400;7.608;2023-04-16T11:09:50;17.65;;;10.23;;
73266;SDS011;61495;53.400;7.608;2023-04-16T11:12:17;17.88;;;10.55;;
73266;SDS011;61495;53.400;7.608;2023-04-16T11:14:50;18.00;;;10.57;;
73266;SDS011;61495;53.400;7.608;2023-04-16T11:17:17;16.52;;;10.57;;
73266;SDS011;61495;53.400;7.608;2023-04-16T11:19:44;16.48;;;10.20;;
73266;SDS011;61495;53.400;7.608;2023-04-16T11:22:12;20.27;;;10.55;;
73266;SDS011;61495;53.400;7.608;2023-04-16T11:24:40;14.75;;;9.75;;
73266;SDS011;61495;53.400;7.608;2023-04-16T11:27:06;18.05;;;10.55;;
73266;SDS011;61495;53.400;7.608;2023-04-16T11:29:32;19.98;;;10.20;;
73266;SDS011;61495;53.400;7.608;2023-04-16T11:31:58;16.58;;;10.52;;
73266;SDS011;61495;53.400;7.608;2023-04-16T11:34:23;17.75;;;11.38;;
73266;SDS011;61495;53.400;7.608;2023-04-16T11:36:50;16.25;;;10.93;;
73266;SDS011;61495;53.400;7.608;2023-04-16T11:39:16;17.55;;;9.57;;
73266;SDS011;61495;53.400;7.608;2023-04-16T11:41:42;15.93;;;9.18;;
73266;SDS011;61495;53.400;7.608;2023-04-16T11:44:24;14.65;;;10.32;;
73266;SDS011;61495;53.400;7.608;2023-04-16T11:46:52;15.77;;;10.23;;
73266;SDS011;61495;53.400;7.608;2023-04-16T11:49:27;14.80;;;9.27;;
73266;SDS011;61495;53.400;7.608;2023-04-16T11:51:53;15.82;;;11.80;;
73266;SDS011;61495;53.400;7.608;2023-04-16T11:54:19;16.83;;;10.93;;
73266;SDS011;61495;53.400;7.608;2023-04-16T11:56:46;16.55;;;11.43;;
73266;SDS011;61495;53.400;7.608;2023-04-16T11:59:14;15.63;;;10.02;;
73266;SDS011;61495;53.400;7.608;2023-04-16T12:01:50;15.70;;;10.63;;
73266;SDS011;61495;53.400;7.608;2023-04-16T12:04:18;14.88;;;10.73;;
73266;SDS011;61495;53.400;7.608;2023-04-16T12:09:33;14.73;;;10.93;;
73266;SDS011;61495;53.400;7.608;2023-04-16T12:11:59;18.55;;;11.45;;
73266;SDS011;61495;53.400;7.608;2023-04-16T12:14:25;17.25;;;11.68;;
73266;SDS011;61495;53.400;7.608;2023-04-16T12:16:50;16.95;;;11.73;;
73266;SDS011;61495;53.400;7.608;2023-04-16T12:19:16;17.92;;;10.40;;
73266;SDS011;61495;53.400;7.608;2023-04-16T12:21:46;15.63;;;10.15;;
73266;SDS011;61495;53.400;7.608;2023-04-16T12:24:15;14.75;;;10.40;;
73266;SDS011;61495;53.400;7.608;2023-04-16T12:26:51;17.30;;;11.00;;
73266;SDS011;61495;53.400;7.608;2023-04-16T12:29:22;18.15;;;10.32;;
73266;SDS011;61495;53.400;7.608;2023-04-16T12:31:49;14.05;;;10.15;;
73266;SDS011;61495;53.400;7.608;2023-04-16T12:34:16;16.27;;;11.20;;
73266;SDS011;61495;53.400;7.608;2023-04-16T12:36:43;14.63;;;10.23;;
73266;SDS011;61495;53.400;7.608;2023-04-16T12:39:10;16.02;;;10.57;;
73266;SDS011;61495;53.400;7.608;2023-04-16T12:41:38;13.52;;;10.95;;
73266;SDS011;61495;53.400;7.608;2023-04-16T12:44:16;20.70;;;12.10;;
73266;SDS011;61495;53.400;7.608;2023-04-16T12:46:42;16.63;;;11.77;;
73266;SDS011;61495;53.400;7.608;2023-04-16T12:49:08;17.75;;;11.00;;
73266;SDS011;61495;53.400;7.608;2023-04-16T12:51:35;15.07;;;11.43;;
73266;SDS011;61495;53.400;7.608;2023-04-16T12:54:02;14.20;;;10.88;;
73266;SDS011;61495;53.400;7.608;2023-04-16T12:56:29;14.15;;;10.60;;
73266;SDS011;61495;53.400;7.608;2023-04-16T12:58:54;14.98;;;10.38;;
73266;SDS011;61495;53.400;7.608;2023-04-16T13:01:20;14.43;;;10.88;;
73266;SDS011;61495;53.400;7.608;2023-04-16T13:03:46;14.40;;;10.18;;
73266;SDS011;61495;53.400;7.608;2023-04-16T13:06:12;14.73;;;11.13;;
73266;SDS011;61495;53.400;7.608;2023-04-16T13:08:39;14.13;;;10.50;;
73266;SDS011;61495;53.400;7.608;2023-04-16T13:11:07;15.05;;;11.18;;
73266;SDS011;61495;53.400;7.608;2023-04-16T13:13:35;14.35;;;10.18;;
73266;SDS011;61495;53.400;7.608;2023-04-16T13:16:01;14.50;;;10.13;;
73266;SDS011;61495;53.400;7.608;2023-04-16T13:18:30;17.92;;;10.85;;
73266;SDS011;61495;53.400;7.608;2023-04-16T13:20:56;13.45;;;10.85;;
73266;SDS011;61495;53.400;7.608;2023-04-16T13:23:22;14.48;;;10.95;;
73266;SDS011;61495;53.400;7.608;2023-04-16T13:25:47;13.52;;;10.57;;
73266;SDS011;61495;53.400;7.608;2023-04-16T13:28:13;13.88;;;10.30;;
73266;SDS011;61495;53.400;7.608;2023-04-16T13:30:38;15.95;;;9.82;;
73266;SDS011;61495;53.400;7.608;2023-04-16T13:33:03;14.75;;;11.13;;
73266;SDS011;61495;53.400;7.608;2023-04-16T13:35:29;14.98;;;12.02;;
73266;SDS011;61495;53.400;7.608;2023-04-16T13:37:54;15.38;;;11.45;;
73266;SDS011;61495;53.400;7.608;2023-04-16T13:40:20;17.85;;;11.23;;
73266;SDS011;61495;53.400;7.608;2023-04-16T13:42:45;14.35;;;10.20;;
73266;SDS011;61495;53.400;7.608;2023-04-16T13:45:11;15.10;;;10.35;;
73266;SDS011;61495;53.400;7.608;2023-04-16T13:47:39;14.77;;;11.20;;
73266;SDS011;61495;53.400;7.608;2023-04-16T13:50:08;14.93;;;11.40;;
73266;SDS011;61495;53.400;7.608;2023-04-16T13:52:34;17.65;;;12.20;;
73266;SDS011;61495;53.400;7.608;2023-04-16T13:55:00;17.05;;;11.30;;
73266;SDS011;61495;53.400;7.608;2023-04-16T13:57:25;19.35;;;12.32;;
73266;SDS011;61495;53.400;7.608;2023-04-16T13:59:52;17.42;;;12.73;;
73266;SDS011;61495;53.400;7.608;2023-04-16T14:02:17;17.25;;;12.70;;
73266;SDS011;61495;53.400;7.608;2023-04-16T14:04:43;14.60;;;12.10;;
73266;SDS011;61495;53.400;7.608;2023-04-16T14:07:08;15.68;;;11.30;;
73266;SDS011;61495;53.400;7.608;2023-04-16T14:09:33;18.98;;;12.48;;
73266;SDS011;61495;53.400;7.608;2023-04-16T14:11:59;16.85;;;10.93;;
73266;SDS011;61495;53.400;7.608;2023-04-16T14:14:31;16.35;;;11.05;;
73266;SDS011;61495;53.400;7.608;2023-04-16T14:16:56;17.20;;;11.50;;
73266;SDS011;61495;53.400;7.608;2023-04-16T14:19:22;17.95;;;12.25;;
73266;SDS011;61495;53.400;7.608;2023-04-16T14:21:48;17.38;;;12.18;;
73266;SDS011;61495;53.400;7.608;2023-04-16T14:24:13;16.60;;;12.52;;